Latest Weather Observations for Cape Naturaliste

IDW60801

Issued at 7:35 pm WST Friday 24 October 2014 (issued every 30 minutes, with the page automatically refreshed every 10 minutes)

About weather observations | Map of weather stations | Latest weather observations for WA | Other Formats
Station Details ID: 009519 Name: CAPE NATURALISTE Lat: -33.54 Lon: 115.02 Height: 109.0 m
Data from the previous 72 hours. | See also: Recent months at Cape Naturaliste
Date/Time
WST
Temp
°C
App
Temp
°C
Dew
Point
Rel
Hum
%
Delta-T
°C
Wind Press
QNH
hPa
Press
MSL
hPa
Rain
since 9 am
mm
Dir
 
Spd
km/h
Gust
km/h
Spd
kts
Gust
kts
24/07:30pm 16.2 15.1 12.0 76 2.3 SW 9 11 5 6 1015.6 1015.5 0.0
24/07:00pm 16.6 15.9 11.9 74 2.6 SW 7 9 4 5 1015.4 1015.3 0.0
24/06:30pm 17.4 16.0 12.3 72 2.8 W 11 15 6 8 1015.4 1015.3 0.0
24/06:00pm 18.0 17.1 12.7 71 3.0 WNW 9 13 5 7 1015.4 1015.3 0.0
24/05:30pm 18.2 16.5 12.6 70 3.1 NNW 13 15 7 8 1015.5 1015.4 0.0
24/05:00pm 18.4 17.1 12.4 68 3.4 N 11 17 6 9 1015.4 1015.3 0.0
24/04:30pm 19.2 17.6 12.7 66 3.7 NNW 13 17 7 9 1015.7 1015.6 0.0
24/04:00pm 20.3 18.3 12.8 62 4.3 NNW 15 20 8 11 1015.7 1015.6 0.0
24/03:30pm 20.3 17.9 12.5 61 4.4 N 17 22 9 12 1015.7 1015.6 0.0
24/03:00pm 20.4 18.5 12.9 62 4.3 N 15 19 8 10 1015.7 1015.6 0.0
24/02:30pm 19.9 17.9 12.7 63 4.1 N 15 20 8 11 1016.0 1015.9 0.0
24/02:00pm 20.1 18.1 12.6 62 4.2 N 15 19 8 10 1016.2 1016.1 0.0
24/01:30pm 20.1 18.0 12.3 61 4.4 N 15 20 8 11 1016.4 1016.3 0.0
24/01:00pm 20.2 17.9 12.9 63 4.1 NNE 17 20 9 11 1016.8 1016.7 0.0
24/12:30pm 20.0 17.9 12.5 62 4.2 NNE 15 20 8 11 1017.1 1017.0 0.0
24/12:00pm 19.6 17.1 12.4 63 4.0 NNE 17 22 9 12 1017.2 1017.1 0.0
24/11:30am 19.7 16.9 12.5 63 4.1 NE 19 24 10 13 1017.4 1017.3 0.0
24/11:00am 19.4 16.4 12.4 64 3.9 NE 20 26 11 14 1017.7 1017.6 0.0
24/10:30am 19.2 15.8 12.5 65 3.8 NE 22 28 12 15 1018.0 1017.9 0.0
24/10:00am 18.2 15.3 12.9 71 3.0 ENE 20 26 11 14 1018.3 1018.2 0.0
24/09:30am 17.5 14.3 13.0 75 2.5 NE 22 28 12 15 1018.0 1017.9 0.0
24/09:00am 16.4 13.5 12.8 79 2.0 ENE 20 26 11 14 1018.0 1017.9 0.6
24/08:30am 15.9 13.2 13.0 83 1.6 ENE 19 26 10 14 1018.1 1018.0 0.6
24/08:00am 15.1 12.2 12.8 86 1.3 E 20 26 11 14 1018.2 1018.1 0.6
24/07:30am 14.9 12.1 13.1 89 1.0 E 20 28 11 15 1018.3 1018.2 0.6
24/07:00am 13.7 11.5 12.1 90 0.9 ESE 15 17 8 9 1017.9 1017.8 0.6
24/06:30am 13.0 10.2 11.4 90 0.9 ESE 17 19 9 10 1017.7 1017.6 0.6
24/06:00am 12.5 9.6 10.9 90 0.8 ESE 17 20 9 11 1017.8 1017.7 0.6
24/05:30am 12.3 9.3 10.5 89 0.9 SE 17 20 9 11 1017.5 1017.4 0.6
24/05:00am 12.3 9.3 10.5 89 0.9 SE 17 20 9 11 1017.3 1017.2 0.6
24/04:30am 12.3 9.3 10.5 89 0.9 SE 17 19 9 10 1017.4 1017.3 0.4
24/04:00am 12.4 9.4 10.6 89 0.9 SE 17 20 9 11 1017.2 1017.1 0.4
24/03:30am 12.6 9.6 10.8 89 0.9 SE 17 20 9 11 1017.6 1017.5 0.4
24/03:00am 12.5 9.5 10.7 89 0.9 SE 17 20 9 11 1017.8 1017.7 0.4
24/02:30am 12.6 9.3 10.8 89 0.9 SE 19 22 10 12 1017.9 1017.8 0.4
24/02:00am 12.6 9.2 10.7 88 1.0 SE 19 22 10 12 1017.9 1017.8 0.4
24/01:30am 12.6 9.2 10.7 88 1.0 SE 19 22 10 12 1018.0 1017.9 0.4
24/01:00am 12.6 9.2 10.7 88 1.0 SSE 19 22 10 12 1018.2 1018.1 0.4
24/12:30am 12.8 9.2 10.7 87 1.1 SSE 20 26 11 14 1018.1 1018.0 0.4
24/12:00am 12.8 9.2 10.7 87 1.1 SSE 20 26 11 14 1018.3 1018.2 0.4
 
Date/Time
WST
Temp
°C
App
Temp
°C
Dew
Point
Rel
Hum
%
Delta-T
°C
Wind Press
QNH
hPa
Press
MSL
hPa
Rain
since 9 am
mm
Dir
 
Spd
km/h
Gust
km/h
Spd
kts
Gust
kts
23/11:30pm 12.9 9.3 10.6 86 1.2 SSE 20 26 11 14 1018.3 1018.2 0.4
23/11:00pm 12.8 9.2 10.5 86 1.2 SSE 20 26 11 14 1018.2 1018.1 0.4
23/10:30pm 13.1 9.5 10.6 85 1.3 SSE 20 26 11 14 1018.3 1018.2 0.4
23/10:00pm 13.4 9.9 10.9 85 1.3 S 20 24 11 13 1018.4 1018.4 0.4
23/09:30pm 13.2 10.2 10.7 85 1.3 S 17 24 9 13 1018.5 1018.5 0.4
23/09:00pm 13.6 10.4 11.1 85 1.3 SSE 19 26 10 14 1018.5 1018.5 0.4
23/08:30pm 14.0 10.2 11.3 84 1.4 S 22 28 12 15 1018.5 1018.5 0.4
23/08:00pm 14.5 11.3 11.8 84 1.5 S 20 24 11 13 1018.5 1018.5 0.4
23/07:30pm 15.2 11.7 12.1 82 1.7 S 22 28 12 15 1018.1 1018.0 0.4
23/07:00pm 15.0 10.9 11.6 80 1.8 S 24 30 13 16 1017.6 1017.5 0.4
23/06:30pm 15.9 11.2 12.1 78 2.1 SSW 28 39 15 21 1017.2 1017.1 0.4
23/06:00pm 16.0 12.2 12.4 79 2.0 SSW 24 35 13 19 1017.0 1016.9 0.4
23/05:30pm 15.8 12.7 12.2 79 2.0 SSW 20 28 11 15 1016.9 1016.8 0.4
23/05:00pm 16.6 12.8 12.4 76 2.3 SSW 24 35 13 19 1016.8 1016.7 0.4
23/04:30pm 16.9 12.9 11.8 72 2.8 SW 24 32 13 17 1016.7 1016.6 0.4
23/04:00pm 19.9 16.4 12.2 61 4.3 SSW 22 32 12 17 1016.5 1016.4 0.4
23/03:30pm 20.0 15.7 12.0 60 4.5 SSW 26 33 14 18 1016.3 1016.2 0.4
23/03:00pm 20.2 15.8 11.7 58 4.7 SSW 26 35 14 19 1016.2 1016.1 0.4
23/02:30pm 20.6 16.1 12.6 60 4.5 SSW 28 39 15 21 1016.2 1016.1 0.4
23/02:00pm 20.0 15.3 12.0 60 4.5 SSW 28 41 15 22 1016.0 1015.9 0.4
23/01:30pm 20.0 14.5 11.7 59 4.6 SSW 32 44 17 24 1016.0 1015.9 0.4
23/01:00pm 20.2 15.1 11.9 59 4.6 SSW 30 41 16 22 1015.9 1015.8 0.4
23/12:30pm 19.9 14.4 11.9 60 4.5 SSW 32 41 17 22 1015.7 1015.6 0.4
23/12:00pm 19.7 14.5 12.7 64 4.0 SSW 32 41 17 22 1015.6 1015.5 0.4
23/11:30am 19.7 14.3 12.7 64 4.0 SSW 33 50 18 27 1015.4 1015.3 0.4
23/11:00am 19.1 13.8 12.4 65 3.8 SW 32 43 17 23 1015.3 1015.2 0.4
23/10:30am 18.2 13.0 12.9 71 3.0 SW 32 43 17 23 1015.2 1015.1 0.4
23/10:00am 16.5 11.5 13.4 82 1.7 SW 32 43 17 23 1014.9 1014.8 0.4
23/09:30am 16.3 11.8 13.8 85 1.4 SW 30 37 16 20 1014.6 1014.5 0.4
23/09:00am 16.2 10.4 12.6 79 2.0 WSW 35 50 19 27 1014.5 1014.4 1.0
23/08:58am 17.2 12.2 13.3 78 2.2 SW 32 50 17 27 1014.4 1014.3 0.2
23/08:30am 18.2 13.2 13.9 76 2.5 SW 33 46 18 25 1013.9 1013.8 0.0
23/08:04am 17.6 13.3 14.3 81 1.9 SW 30 50 16 27 1013.6 1013.5 0.0
23/08:00am 17.1 13.1 14.0 82 1.8 SW 28 41 15 22 1013.6 1013.5 0.0
23/07:43am 16.4 11.4 13.5 83 1.6 SW 32 50 17 27 1013.3 1013.2 0.0
23/07:30am 16.3 11.2 13.2 82 1.7 SW 32 43 17 23 1013.2 1013.1 0.0
23/07:00am 16.2 11.0 13.5 84 1.5 WSW 33 43 18 23 1012.9 1012.8 0.0
23/06:30am 16.4 10.8 13.3 82 1.7 WSW 35 44 19 24 1012.6 1012.5 0.0
23/06:00am 16.4 11.4 13.3 82 1.7 WSW 32 46 17 25 1012.3 1012.2 0.0
23/05:30am 16.1 10.7 12.8 81 1.8 WSW 33 44 18 24 1011.9 1011.8 0.0
23/05:00am 16.4 10.7 13.1 81 1.9 W 35 44 19 24 1011.8 1011.7 0.0
23/04:30am 16.2 10.9 12.4 78 2.1 W 32 43 17 23 1011.8 1011.7 0.0
23/04:00am 15.9 11.0 12.5 80 1.9 W 30 39 16 21 1011.7 1011.6 0.0
23/03:30am 15.6 11.7 12.2 80 1.9 W 24 35 13 19 1011.3 1011.2 0.0
23/03:00am 15.7 11.5 12.3 80 1.9 W 26 32 14 17 1011.5 1011.4 0.0
23/02:30am 15.8 12.0 12.4 80 1.9 W 24 33 13 18 1011.6 1011.5 0.0
23/02:00am 15.8 12.0 12.4 80 1.9 WNW 24 30 13 16 1011.9 1011.8 0.0
23/01:30am 16.2 12.5 12.7 80 1.9 W 24 32 13 17 1012.1 1012.0 0.0
23/01:00am 16.0 11.6 12.9 82 1.7 W 28 35 15 19 1012.3 1012.2 0.0
23/12:30am 15.5 12.4 12.3 81 1.8 W 20 26 11 14 1012.0 1011.9 0.0
23/12:00am 16.0 12.6 12.6 80 1.9 W 22 32 12 17 1012.3 1012.2 0.0
 
Date/Time
WST
Temp
°C
App
Temp
°C
Dew
Point
Rel
Hum
%
Delta-T
°C
Wind Press
QNH
hPa
Press
MSL
hPa
Rain
since 9 am
mm
Dir
 
Spd
km/h
Gust
km/h
Spd
kts
Gust
kts
22/11:30pm 16.2 11.6 12.2 77 2.2 W 28 35 15 19 1012.8 1012.7 0.0
22/11:00pm 16.3 11.2 11.9 75 2.4 W 30 41 16 22 1013.1 1013.0 0.0
22/10:30pm 16.4 10.3 11.8 74 2.5 W 35 43 19 23 1013.2 1013.1 0.0
22/10:00pm 16.5 11.0 12.3 76 2.3 W 33 44 18 24 1013.2 1013.1 0.0
22/09:30pm 16.6 11.1 12.6 77 2.2 W 33 43 18 23 1012.9 1012.8 0.0
22/09:00pm 16.9 11.6 13.0 78 2.2 W 33 41 18 22 1013.1 1013.0 0.0
22/08:30pm 16.8 12.1 13.3 80 2.0 W 30 39 16 21 1012.9 1012.8 0.0
22/08:00pm 16.7 12.3 13.0 79 2.1 W 28 35 15 19 1012.2 1012.1 0.0
22/07:30pm 17.0 12.0 13.3 79 2.1 W 32 41 17 22 1012.0 1011.9 0.0
22/07:00pm 17.5 11.7 13.8 79 2.1 W 37 46 20 25 1011.7 1011.6 0.0
22/06:30pm 18.3 13.6 14.8 80 2.0 W 33 43 18 23 1011.4 1011.3 0.0
22/06:00pm 18.6 13.2 14.9 79 2.2 W 37 46 20 25 1010.8 1010.7 0.0
22/05:30pm 19.4 14.1 14.2 72 3.0 W 35 48 19 26 1010.3 1010.1 0.0
22/05:00pm 19.7 14.9 14.7 73 2.9 W 33 41 18 22 1010.1 1009.9 0.0
22/04:30pm 19.8 14.1 14.2 70 3.3 W 37 44 20 24 1009.9 1009.7 0.0
22/04:00pm 22.4 18.6 15.7 66 4.0 W 30 39 16 21 1009.8 1009.6 0.0
22/03:30pm 23.2 21.0 15.0 60 4.9 W 20 28 11 15 1010.4 1010.2 0.0
22/03:00pm 23.5 21.0 14.2 56 5.5 NW 20 28 11 15 1010.7 1010.6 0.0
22/02:30pm 23.1 20.2 14.1 57 5.3 NW 22 28 12 15 1011.2 1011.1 0.0
22/02:00pm 23.9 22.4 15.4 59 5.1 NNW 17 22 9 12 1011.3 1011.2 0.0
22/01:30pm 24.4 22.1 14.2 53 6.0 NNE 19 22 10 12 1011.4 1011.3 0.0
22/01:00pm 24.1 21.0 14.5 55 5.7 NE 24 30 13 16 1011.4 1011.3 0.0
22/12:30pm 24.7 20.7 15.1 55 5.8 ENE 30 35 16 19 1011.6 1011.5 0.0
22/12:00pm 24.0 19.9 15.0 57 5.4 ENE 30 39 16 21 1011.7 1011.6 0.0
22/11:30am 23.0 18.5 14.8 60 4.9 E 32 39 17 21 1012.0 1011.9 0.0
22/11:00am 22.3 17.4 14.4 61 4.7 E 33 41 18 22 1012.5 1012.4 0.0
22/10:30am 22.0 17.2 14.6 63 4.4 E 33 43 18 23 1013.2 1013.1 0.0
22/10:00am 20.8 15.4 14.0 65 4.0 E 35 44 19 24 1013.9 1013.8 0.0
22/09:30am 19.7 14.0 12.9 65 3.9 E 35 46 19 25 1014.6 1014.5 0.0
22/09:00am 19.1 13.4 13.1 68 3.4 ESE 35 46 19 25 1014.8 1014.7 0.0
22/08:30am 18.0 11.8 12.5 70 3.1 E 37 46 20 25 1015.1 1015.0 0.0
22/08:00am 17.6 11.7 12.5 72 2.8 E 35 44 19 24 1015.2 1015.1 0.0
22/07:30am 16.6 10.5 11.9 74 2.6 E 35 44 19 24 1015.4 1015.3 0.0
22/07:00am 16.1 10.1 12.1 77 2.2 E 35 43 19 23 1015.5 1015.4 0.0
22/06:30am 15.1 9.6 11.7 80 1.8 E 32 39 17 21 1015.6 1015.5 0.0
22/06:00am 13.9 8.1 10.7 81 1.7 ESE 32 43 17 23 1015.7 1015.6 0.0
22/05:30am 14.5 8.2 11.1 80 1.8 E 35 43 19 23 1015.4 1015.3 0.0
22/05:00am 14.2 7.8 10.8 80 1.8 E 35 44 19 24 1015.4 1015.3 0.0
22/04:30am 14.4 7.6 10.8 79 1.9 E 37 46 20 25 1015.5 1015.4 0.0
22/04:00am 14.4 7.6 10.6 78 2.0 E 37 48 20 26 1015.7 1015.6 0.0
22/03:30am 14.5 8.1 10.7 78 2.0 E 35 48 19 26 1015.9 1015.8 0.0
22/03:00am 14.7 7.6 10.9 78 2.0 E 39 48 21 26 1016.1 1016.0 0.0
22/02:30am 14.5 8.0 10.3 76 2.2 E 35 46 19 25 1016.5 1016.4 0.0
22/02:00am 14.6 7.7 10.4 76 2.2 E 37 48 20 26 1016.9 1016.8 0.0
22/01:30am 14.0 7.3 9.6 75 2.3 ESE 35 50 19 27 1017.1 1017.0 0.0
22/01:00am 13.3 6.7 8.6 73 2.4 ESE 33 41 18 22 1017.5 1017.4 0.0
22/12:30am 13.3 6.8 8.2 71 2.5 ESE 32 37 17 20 1017.9 1017.8 0.0
22/12:00am 13.9 6.9 8.5 70 2.7 ESE 35 46 19 25 1018.1 1018.0 0.0
 
Date/Time
WST
Temp
°C
App
Temp
°C
Dew
Point
Rel
Hum
%
Delta-T
°C
Wind Press
QNH
hPa
Press
MSL
hPa
Rain
since 9 am
mm
Dir
 
Spd
km/h
Gust
km/h
Spd
kts
Gust
kts
21/11:30pm 14.0 7.4 8.4 69 2.8 ESE 33 43 18 23 1018.2 1018.1 0.0
21/11:00pm 14.3 8.3 8.5 68 2.9 ESE 30 39 16 21 1018.1 1018.0 0.0
21/10:30pm 14.5 8.5 8.5 67 3.0 SE 30 39 16 21 1018.4 1018.4 0.0
21/10:00pm 14.8 9.1 8.3 65 3.3 SE 28 39 15 21 1019.0 1018.9 0.0
21/09:30pm 14.9 9.2 8.2 64 3.4 SE 28 35 15 19 1019.3 1019.2 0.0
21/09:00pm 14.9 9.8 7.7 62 3.6 SE 24 33 13 18 1019.8 1019.7 0.0
21/08:30pm 15.0 9.0 7.1 59 3.9 SSE 28 33 15 18 1020.1 1020.0 0.0
21/08:00pm 15.0 9.4 7.1 59 3.9 SSE 26 35 14 19 1020.3 1020.2 0.0

Other Formats:

Comma delimited format used in spreadsheet applications
http://www.bom.gov.au/fwo/IDW60801/IDW60801.94600.axf

JavaScript Object Notation format (JSON) in row-major order
http://www.bom.gov.au/fwo/IDW60801/IDW60801.94600.json